createdAt,value
2023-01-29T00:01:48.095Z,7.92
2023-01-29T00:04:14.642Z,7.86
2023-01-29T00:06:41.181Z,7.88
2023-01-29T00:09:07.784Z,7.93
2023-01-29T00:11:35.361Z,8.00
2023-01-29T00:14:02.010Z,7.94
2023-01-29T00:16:28.597Z,8.02
2023-01-29T00:18:55.128Z,8.08
2023-01-29T00:21:22.717Z,8.02
2023-01-29T00:23:50.391Z,7.98
2023-01-29T00:26:17.183Z,7.94
2023-01-29T00:28:47.181Z,7.95
2023-01-29T00:31:22.589Z,7.88
2023-01-29T00:33:50.000Z,7.94
2023-01-29T00:36:19.133Z,7.85
2023-01-29T00:38:54.352Z,7.87
2023-01-29T00:41:40.908Z,7.96
2023-01-29T00:44:26.234Z,7.84
2023-01-29T00:46:52.874Z,7.61
2023-01-29T00:49:19.496Z,7.82
2023-01-29T00:52:06.016Z,7.70
2023-01-29T00:54:33.261Z,7.89
2023-01-29T00:57:00.888Z,7.91
2023-01-29T00:59:27.482Z,7.77
2023-01-29T01:02:12.645Z,7.84
2023-01-29T01:04:39.218Z,7.88
2023-01-29T01:07:06.549Z,7.94
2023-01-29T01:09:54.623Z,7.95
2023-01-29T01:12:21.667Z,7.91
2023-01-29T01:14:48.269Z,7.87
2023-01-29T01:17:15.543Z,7.84
2023-01-29T01:19:42.305Z,7.83
2023-01-29T01:22:08.896Z,7.74
2023-01-29T01:24:35.727Z,7.79
2023-01-29T01:27:02.247Z,7.75
2023-01-29T01:29:28.804Z,7.78
2023-01-29T01:31:55.392Z,7.73
2023-01-29T01:34:23.857Z,7.83
2023-01-29T01:36:50.425Z,7.81
2023-01-29T01:39:17.027Z,7.80
2023-01-29T01:41:43.555Z,7.59
2023-01-29T01:44:48.066Z,7.72
2023-01-29T01:47:15.959Z,7.68
2023-01-29T01:49:43.901Z,7.59
2023-01-29T01:52:13.547Z,7.67
2023-01-29T01:54:40.222Z,7.74
2023-01-29T01:57:16.096Z,7.80
2023-01-29T01:59:48.617Z,7.71
2023-01-29T02:02:35.932Z,7.71
2023-01-29T02:05:21.386Z,7.67
2023-01-29T02:08:08.986Z,7.66
2023-01-29T02:10:41.687Z,7.77
2023-01-29T02:13:09.320Z,7.74
2023-01-29T02:15:35.856Z,7.79
2023-01-29T02:18:02.471Z,7.74
2023-01-29T02:20:34.749Z,7.78
2023-01-29T02:23:40.053Z,7.80
2023-01-29T02:26:20.208Z,7.81
2023-01-29T02:28:58.671Z,7.86
2023-01-29T02:31:40.004Z,7.83
2023-01-29T02:34:06.534Z,7.83
2023-01-29T02:36:39.004Z,7.76
2023-01-29T02:39:41.912Z,7.70
2023-01-29T02:42:27.781Z,7.84
2023-01-29T02:45:06.135Z,7.82
2023-01-29T02:47:35.571Z,7.91
2023-01-29T02:50:19.534Z,7.81
2023-01-29T02:53:02.080Z,7.84
2023-01-29T02:55:45.414Z,7.91
2023-01-29T02:58:26.303Z,7.82
2023-01-29T03:00:56.344Z,7.80
2023-01-29T03:03:32.320Z,7.77
2023-01-29T03:06:07.504Z,7.79
2023-01-29T03:09:00.824Z,7.84
2023-01-29T03:11:33.419Z,7.82
2023-01-29T03:14:08.798Z,7.87
2023-01-29T03:16:50.752Z,7.87
2023-01-29T03:19:29.465Z,7.82
2023-01-29T03:22:01.548Z,7.88
2023-01-29T03:24:51.925Z,7.84
2023-01-29T03:27:45.470Z,7.99
2023-01-29T03:30:34.363Z,7.91
2023-01-29T03:33:29.447Z,7.87
2023-01-29T03:36:02.492Z,7.96
2023-01-29T03:38:32.096Z,8.01
2023-01-29T03:41:14.170Z,8.01
2023-01-29T03:43:56.130Z,8.03
2023-01-29T03:46:48.949Z,7.99
2023-01-29T03:49:39.842Z,8.05
2023-01-29T03:52:37.297Z,8.00
2023-01-29T03:55:13.106Z,7.93
2023-01-29T03:57:49.358Z,7.81
2023-01-29T04:00:21.157Z,7.85
2023-01-29T04:03:21.820Z,7.93
2023-01-29T04:05:58.579Z,7.87
2023-01-29T04:08:34.593Z,7.91
2023-01-29T04:11:10.305Z,7.92
2023-01-29T04:13:38.055Z,7.86
2023-01-29T04:16:08.287Z,7.83
2023-01-29T04:18:51.820Z,7.85
2023-01-29T04:21:25.778Z,7.84
2023-01-29T04:23:52.363Z,7.90
2023-01-29T04:26:28.093Z,7.95
2023-01-29T04:29:16.582Z,8.05
2023-01-29T04:32:02.541Z,7.97
2023-01-29T04:34:44.905Z,8.05
2023-01-29T04:37:29.567Z,7.88
2023-01-29T04:40:10.726Z,7.98
2023-01-29T04:42:41.720Z,7.94
2023-01-29T04:45:25.898Z,7.89
2023-01-29T04:48:11.213Z,7.75
2023-01-29T04:50:47.044Z,7.48
2023-01-29T04:53:23.777Z,7.43
2023-01-29T04:55:58.306Z,7.55
2023-01-29T04:58:45.098Z,7.71
2023-01-29T05:01:16.483Z,7.83
2023-01-29T05:03:47.640Z,7.84
2023-01-29T05:06:15.819Z,7.95
2023-01-29T05:08:42.410Z,7.86
2023-01-29T05:11:10.017Z,7.80
2023-01-29T05:13:39.743Z,7.83
2023-01-29T05:16:20.024Z,7.80
2023-01-29T05:18:47.118Z,7.79
2023-01-29T05:21:13.826Z,7.03
2023-01-29T05:23:52.961Z,7.36
2023-01-29T05:26:39.649Z,7.60
2023-01-29T05:29:06.193Z,7.71
2023-01-29T05:31:32.893Z,7.76
2023-01-29T05:33:59.432Z,7.74
2023-01-29T05:36:27.154Z,7.73
2023-01-29T05:38:53.721Z,7.78
2023-01-29T05:41:21.024Z,7.73
2023-01-29T05:43:47.602Z,7.80
2023-01-29T05:46:14.247Z,7.80
2023-01-29T05:48:40.844Z,7.91
2023-01-29T05:51:07.381Z,7.93
2023-01-29T05:53:33.935Z,7.84
2023-01-29T05:56:05.189Z,7.96
2023-01-29T05:58:32.339Z,7.90
2023-01-29T06:01:07.298Z,7.97
2023-01-29T06:03:33.814Z,7.90
2023-01-29T06:06:02.023Z,7.90
2023-01-29T06:08:28.536Z,7.83
2023-01-29T06:10:55.079Z,7.90
2023-01-29T06:13:23.640Z,7.78
2023-01-29T06:15:50.463Z,7.86
2023-01-29T06:18:17.019Z,7.96
2023-01-29T06:20:43.749Z,7.94
2023-01-29T06:23:10.326Z,7.92
2023-01-29T06:25:36.896Z,7.83
2023-01-29T06:28:03.584Z,7.95
2023-01-29T06:30:31.671Z,7.81
2023-01-29T06:32:59.069Z,7.86
2023-01-29T06:35:26.034Z,7.89
2023-01-29T06:37:52.595Z,7.88
2023-01-29T06:40:19.341Z,7.96
2023-01-29T06:42:46.253Z,7.86
2023-01-29T06:45:14.003Z,7.64
2023-01-29T06:47:40.539Z,7.57
2023-01-29T06:50:07.276Z,7.67
2023-01-29T06:52:33.821Z,7.69
2023-01-29T06:55:00.380Z,7.81
2023-01-29T06:57:29.979Z,7.83
2023-01-29T06:59:56.528Z,7.76
2023-01-29T07:02:23.103Z,7.90
2023-01-29T07:04:49.674Z,7.90
2023-01-29T07:07:16.236Z,7.91
2023-01-29T07:09:43.307Z,7.83
2023-01-29T07:12:10.934Z,7.75
2023-01-29T07:14:37.508Z,7.78
2023-01-29T07:17:04.088Z,7.81
2023-01-29T07:19:30.630Z,7.92
2023-01-29T07:21:57.140Z,7.99
2023-01-29T07:24:24.377Z,7.78
2023-01-29T07:26:50.948Z,7.95
2023-01-29T07:29:17.471Z,7.93
2023-01-29T07:31:44.041Z,7.98
2023-01-29T07:34:10.607Z,8.02
2023-01-29T07:36:37.206Z,8.05
2023-01-29T07:39:03.748Z,8.00
2023-01-29T07:41:30.279Z,7.81
2023-01-29T07:43:59.492Z,7.69
2023-01-29T07:46:26.037Z,7.89
2023-01-29T07:48:52.560Z,7.95
2023-01-29T07:51:21.264Z,8.01
2023-01-29T07:53:47.878Z,8.11
2023-01-29T07:56:14.523Z,8.23
2023-01-29T07:58:41.054Z,8.23
2023-01-29T08:01:07.881Z,7.85
2023-01-29T08:03:34.925Z,7.72
2023-01-29T08:06:02.560Z,8.16
2023-01-29T08:08:29.117Z,8.21
2023-01-29T08:10:55.648Z,8.23
2023-01-29T08:13:22.256Z,8.30
2023-01-29T08:15:48.780Z,8.36
2023-01-29T08:18:15.647Z,8.40
2023-01-29T08:20:42.212Z,8.49
2023-01-29T08:23:13.541Z,8.55
2023-01-29T08:25:40.512Z,8.68
2023-01-29T08:28:07.227Z,8.32
2023-01-29T08:30:34.650Z,8.02
2023-01-29T08:33:02.841Z,8.14
2023-01-29T08:35:29.456Z,8.40
2023-01-29T08:37:59.220Z,8.18
2023-01-29T08:40:31.741Z,7.60
2023-01-29T08:43:03.530Z,7.46
2023-01-29T08:45:34.023Z,7.43
2023-01-29T08:48:00.674Z,7.43
2023-01-29T08:50:27.653Z,7.69
2023-01-29T08:52:59.077Z,7.86
2023-01-29T08:55:26.357Z,7.89
2023-01-29T08:57:53.212Z,8.14
2023-01-29T09:00:20.344Z,8.29
2023-01-29T09:02:47.155Z,8.48
2023-01-29T09:05:13.799Z,8.65
2023-01-29T09:07:40.349Z,8.69
2023-01-29T09:10:09.000Z,8.67
2023-01-29T09:12:35.539Z,8.70
2023-01-29T09:15:02.060Z,8.63
2023-01-29T09:17:28.575Z,8.60
2023-01-29T09:19:55.093Z,8.43
2023-01-29T09:22:21.688Z,8.26
2023-01-29T09:24:48.258Z,8.18
2023-01-29T09:27:14.884Z,8.08
2023-01-29T09:29:41.575Z,7.99
2023-01-29T09:32:08.115Z,8.32
2023-01-29T09:34:35.165Z,8.34
2023-01-29T09:37:01.742Z,8.49
2023-01-29T09:39:28.507Z,8.48
2023-01-29T09:42:10.125Z,8.58
2023-01-29T09:44:54.876Z,8.75
2023-01-29T09:47:25.460Z,8.83
2023-01-29T09:49:57.637Z,8.55
2023-01-29T09:52:30.020Z,8.63
2023-01-29T09:55:02.545Z,8.83
2023-01-29T09:57:39.134Z,8.90
2023-01-29T10:00:06.389Z,8.99
2023-01-29T10:02:50.519Z,8.97
2023-01-29T10:05:21.735Z,9.22
2023-01-29T10:08:04.354Z,9.23
2023-01-29T10:10:33.604Z,9.40
2023-01-29T10:13:11.812Z,9.35
2023-01-29T10:16:04.363Z,9.37
2023-01-29T10:19:21.145Z,9.32
2023-01-29T10:22:18.900Z,9.00
2023-01-29T10:24:57.550Z,8.81
2023-01-29T10:27:32.085Z,8.43
2023-01-29T10:30:01.317Z,8.80
2023-01-29T10:32:29.834Z,8.94
2023-01-29T10:35:01.675Z,9.05
2023-01-29T10:37:42.598Z,9.27
2023-01-29T10:40:23.134Z,9.26
2023-01-29T10:43:09.461Z,9.23
2023-01-29T10:46:00.195Z,9.40
2023-01-29T10:48:59.116Z,9.05
2023-01-29T10:52:00.107Z,8.59
2023-01-29T10:55:00.308Z,8.55
2023-01-29T10:57:49.784Z,8.65
2023-01-29T11:00:22.360Z,8.49
2023-01-29T11:02:51.366Z,8.76
2023-01-29T11:05:21.162Z,8.89
2023-01-29T11:07:49.446Z,8.98
2023-01-29T11:10:20.623Z,9.07
2023-01-29T11:12:47.134Z,9.12
2023-01-29T11:15:23.179Z,9.19
2023-01-29T11:18:07.242Z,8.84
2023-01-29T11:20:34.140Z,8.86
2023-01-29T11:23:00.752Z,9.09
2023-01-29T11:25:29.931Z,9.00
2023-01-29T11:27:58.231Z,9.09
2023-01-29T11:30:41.503Z,9.28
2023-01-29T11:33:23.796Z,9.25
2023-01-29T11:35:52.470Z,9.32
2023-01-29T11:38:23.588Z,9.29
2023-01-29T11:40:50.217Z,9.39
2023-01-29T11:43:32.490Z,9.52
2023-01-29T11:46:03.461Z,9.46
2023-01-29T11:48:41.846Z,9.41
2023-01-29T11:51:12.442Z,9.20
2023-01-29T11:53:42.942Z,9.26
2023-01-29T11:56:18.626Z,9.15
2023-01-29T11:58:46.594Z,9.28
2023-01-29T12:01:16.227Z,8.21
2023-01-29T12:03:52.994Z,8.35
2023-01-29T12:06:35.594Z,9.07
2023-01-29T12:09:09.141Z,9.30
2023-01-29T12:11:36.194Z,9.50
2023-01-29T12:14:23.765Z,9.40
2023-01-29T12:17:19.778Z,9.31
2023-01-29T12:19:58.777Z,9.39
2023-01-29T12:22:42.986Z,9.37
2023-01-29T12:25:31.173Z,8.77
2023-01-29T12:28:09.485Z,8.75
2023-01-29T12:31:05.813Z,9.07
2023-01-29T12:33:41.659Z,9.26
2023-01-29T12:36:21.566Z,8.98
2023-01-29T12:38:48.098Z,8.83
2023-01-29T12:41:30.075Z,8.62
2023-01-29T12:44:03.138Z,8.30
2023-01-29T12:46:37.876Z,8.37
2023-01-29T12:49:13.832Z,8.41
2023-01-29T12:51:59.269Z,8.57
2023-01-29T12:54:34.848Z,8.60
2023-01-29T12:57:04.443Z,8.60
2023-01-29T12:59:43.104Z,8.69
2023-01-29T13:02:18.624Z,8.27
2023-01-29T13:05:03.884Z,8.38
2023-01-29T13:07:41.058Z,8.60
2023-01-29T13:10:14.966Z,8.62
2023-01-29T13:12:53.233Z,8.55
2023-01-29T13:15:30.789Z,8.30
2023-01-29T13:18:22.723Z,8.29
2023-01-29T13:20:50.558Z,8.67
2023-01-29T13:23:21.513Z,8.86
2023-01-29T13:25:57.483Z,8.78
2023-01-29T13:28:26.567Z,8.48
2023-01-29T13:31:12.041Z,8.48
2023-01-29T13:33:40.598Z,8.58
2023-01-29T13:36:15.614Z,8.67
2023-01-29T13:38:44.930Z,8.46
2023-01-29T13:41:12.147Z,8.68
2023-01-29T13:43:41.549Z,8.22
2023-01-29T13:46:17.537Z,7.95
2023-01-29T13:48:47.074Z,7.13
2023-01-29T13:51:20.378Z,8.10
2023-01-29T13:54:00.021Z,8.10
2023-01-29T13:56:33.944Z,7.81
2023-01-29T13:59:02.438Z,7.77
2023-01-29T14:01:47.286Z,7.53
2023-01-29T14:04:21.596Z,7.33
2023-01-29T14:06:53.551Z,7.64
2023-01-29T14:09:39.366Z,7.90
2023-01-29T14:12:21.116Z,8.09
2023-01-29T14:14:47.576Z,8.10
2023-01-29T14:17:18.783Z,8.21
2023-01-29T14:19:57.403Z,7.73
2023-01-29T14:22:27.621Z,7.89
2023-01-29T14:24:58.339Z,8.24
2023-01-29T14:27:25.753Z,8.36
2023-01-29T14:30:00.176Z,8.36
2023-01-29T14:32:27.045Z,8.57
2023-01-29T14:35:10.426Z,8.45
2023-01-29T14:37:40.644Z,8.40
2023-01-29T14:40:19.301Z,8.09
2023-01-29T14:43:05.481Z,8.39
2023-01-29T14:45:37.024Z,8.35
2023-01-29T14:48:09.518Z,8.05
2023-01-29T14:50:39.428Z,7.86
2023-01-29T14:53:19.631Z,7.77
2023-01-29T14:55:58.122Z,7.96
2023-01-29T14:58:33.332Z,8.09
2023-01-29T15:01:02.483Z,8.21
2023-01-29T15:04:04.621Z,8.28
2023-01-29T15:06:43.252Z,7.99
2023-01-29T15:09:36.409Z,8.10
2023-01-29T15:12:18.675Z,8.03
2023-01-29T15:14:59.817Z,7.68
2023-01-29T15:17:32.596Z,7.64
2023-01-29T15:19:59.222Z,7.76
2023-01-29T15:22:26.160Z,7.66
2023-01-29T15:25:22.346Z,7.58
2023-01-29T15:27:50.127Z,7.38
2023-01-29T15:30:31.810Z,7.73
2023-01-29T15:32:59.108Z,7.56
2023-01-29T15:35:34.312Z,7.66
2023-01-29T15:38:18.470Z,7.66
2023-01-29T15:40:58.951Z,7.79
2023-01-29T15:43:27.284Z,7.88
2023-01-29T15:46:06.632Z,7.79
2023-01-29T15:48:38.054Z,7.63
2023-01-29T15:51:10.281Z,7.67
2023-01-29T15:53:44.211Z,7.66
2023-01-29T15:56:12.935Z,7.74
2023-01-29T15:58:40.490Z,7.63
2023-01-29T16:01:07.262Z,7.43
2023-01-29T16:03:36.001Z,7.45
2023-01-29T16:06:03.185Z,7.20
2023-01-29T16:08:30.103Z,7.07
2023-01-29T16:11:00.590Z,6.75
2023-01-29T16:13:33.610Z,7.05
2023-01-29T16:16:02.949Z,7.31
2023-01-29T16:18:35.338Z,7.22
2023-01-29T16:21:08.727Z,7.28
2023-01-29T16:23:40.345Z,7.47
2023-01-29T16:26:09.339Z,7.33
2023-01-29T16:28:43.706Z,7.11
2023-01-29T16:31:11.905Z,7.17
2023-01-29T16:33:42.876Z,7.26
2023-01-29T16:36:17.399Z,7.31
2023-01-29T16:38:49.710Z,7.31
2023-01-29T16:41:22.345Z,7.26
2023-01-29T16:44:02.386Z,7.25
2023-01-29T16:46:48.771Z,7.20
2023-01-29T16:49:30.766Z,7.32
2023-01-29T16:52:16.999Z,7.33
2023-01-29T16:54:43.592Z,6.98
2023-01-29T16:57:21.671Z,6.96
2023-01-29T16:59:49.610Z,7.18
2023-01-29T17:02:27.453Z,7.12
2023-01-29T17:04:58.631Z,7.21
2023-01-29T17:07:25.686Z,7.26
2023-01-29T17:09:59.780Z,7.27
2023-01-29T17:12:28.359Z,7.24
2023-01-29T17:15:05.177Z,7.16
2023-01-29T17:17:34.202Z,7.16
2023-01-29T17:20:15.449Z,7.12
2023-01-29T17:22:42.378Z,6.93
2023-01-29T17:25:15.940Z,6.98
2023-01-29T17:27:44.187Z,7.10
2023-01-29T17:30:22.348Z,6.84
2023-01-29T17:32:49.250Z,7.02
2023-01-29T17:35:17.743Z,7.00
2023-01-29T17:37:44.801Z,7.15
2023-01-29T17:40:37.648Z,7.16
2023-01-29T17:43:04.263Z,6.76
2023-01-29T17:45:30.864Z,6.88
2023-01-29T17:47:57.433Z,7.19
2023-01-29T17:50:27.076Z,6.66
2023-01-29T17:52:53.929Z,6.82
2023-01-29T17:55:21.142Z,6.68
2023-01-29T17:57:47.815Z,6.70
2023-01-29T18:00:21.569Z,6.28
2023-01-29T18:02:47.943Z,6.41
2023-01-29T18:05:16.292Z,6.59
2023-01-29T18:07:46.477Z,6.69
2023-01-29T18:10:17.505Z,6.79
2023-01-29T18:12:45.273Z,6.81
2023-01-29T18:15:12.534Z,6.59
2023-01-29T18:17:39.757Z,6.55
2023-01-29T18:20:18.279Z,6.64
2023-01-29T18:22:45.177Z,6.75
2023-01-29T18:25:12.224Z,6.84
2023-01-29T18:27:38.818Z,6.99
2023-01-29T18:30:05.933Z,7.06
2023-01-29T18:32:32.479Z,6.82
2023-01-29T18:34:59.151Z,6.88
2023-01-29T18:37:25.891Z,7.02
2023-01-29T18:39:53.927Z,6.97
2023-01-29T18:42:20.430Z,6.70
2023-01-29T18:44:46.990Z,6.62
2023-01-29T18:47:13.496Z,6.70
2023-01-29T18:49:40.573Z,6.36
2023-01-29T18:52:07.454Z,6.25
2023-01-29T18:54:34.187Z,6.36
2023-01-29T18:57:11.498Z,6.01
2023-01-29T18:59:40.985Z,6.11
2023-01-29T19:02:07.906Z,6.25
2023-01-29T19:04:34.428Z,5.85
2023-01-29T19:07:00.957Z,5.68
2023-01-29T19:09:27.492Z,5.88
2023-01-29T19:11:54.582Z,5.85
2023-01-29T19:14:21.184Z,5.86
2023-01-29T19:16:47.788Z,5.86
2023-01-29T19:19:14.356Z,5.80
2023-01-29T19:21:40.917Z,5.64
2023-01-29T19:24:09.967Z,5.24
2023-01-29T19:26:36.566Z,5.30
2023-01-29T19:29:03.745Z,5.45
2023-01-29T19:31:31.853Z,5.61
2023-01-29T19:33:58.726Z,5.62
2023-01-29T19:36:25.361Z,5.41
2023-01-29T19:38:51.883Z,5.48
2023-01-29T19:41:18.487Z,5.38
2023-01-29T19:43:46.255Z,5.42
2023-01-29T19:46:12.894Z,5.09
2023-01-29T19:48:39.410Z,4.92
2023-01-29T19:51:10.533Z,5.08
2023-01-29T19:53:38.596Z,4.84
2023-01-29T19:56:08.232Z,5.06
2023-01-29T19:58:35.723Z,5.20
2023-01-29T20:01:13.229Z,5.30
2023-01-29T20:03:41.817Z,5.41
2023-01-29T20:06:09.266Z,5.38
2023-01-29T20:08:35.961Z,5.27
2023-01-29T20:11:03.056Z,5.34
2023-01-29T20:13:29.651Z,5.32
2023-01-29T20:15:56.239Z,5.33
2023-01-29T20:18:22.944Z,5.29
2023-01-29T20:20:52.898Z,5.26
2023-01-29T20:23:31.865Z,5.33
2023-01-29T20:26:04.187Z,5.16
2023-01-29T20:28:30.715Z,5.20
2023-01-29T20:30:58.833Z,5.27
2023-01-29T20:33:26.401Z,5.20
2023-01-29T20:35:57.464Z,5.20
2023-01-29T20:38:25.556Z,5.10
2023-01-29T20:40:52.139Z,5.12
2023-01-29T20:43:18.654Z,5.11
2023-01-29T20:45:45.287Z,5.14
2023-01-29T20:48:11.974Z,4.90
2023-01-29T20:50:38.501Z,5.01
2023-01-29T20:53:05.195Z,4.90
2023-01-29T20:55:31.990Z,5.10
2023-01-29T20:58:05.997Z,5.08
2023-01-29T21:00:33.562Z,5.14
2023-01-29T21:03:00.167Z,5.06
2023-01-29T21:05:26.721Z,5.07
2023-01-29T21:07:53.274Z,4.71
2023-01-29T21:10:20.131Z,5.03
2023-01-29T21:12:46.795Z,5.06
2023-01-29T21:15:13.330Z,5.02
2023-01-29T21:17:39.948Z,5.01
2023-01-29T21:20:08.272Z,4.98
2023-01-29T21:22:34.801Z,4.96
2023-01-29T21:25:01.393Z,4.87
2023-01-29T21:27:27.956Z,4.83
2023-01-29T21:29:54.512Z,4.50
2023-01-29T21:32:21.437Z,4.51
2023-01-29T21:34:47.952Z,4.51
2023-01-29T21:37:14.503Z,4.43
2023-01-29T21:39:41.010Z,4.51
2023-01-29T21:42:26.215Z,4.57
2023-01-29T21:44:52.731Z,4.64
2023-01-29T21:47:19.468Z,4.58
2023-01-29T21:49:46.143Z,4.61
2023-01-29T21:52:13.660Z,4.69
2023-01-29T21:54:40.594Z,4.79
2023-01-29T21:57:12.244Z,4.80
2023-01-29T21:59:38.843Z,4.71
2023-01-29T22:02:05.544Z,4.86
2023-01-29T22:04:32.130Z,4.81
2023-01-29T22:06:58.707Z,4.61
2023-01-29T22:09:25.354Z,4.67
2023-01-29T22:11:51.912Z,4.68
2023-01-29T22:14:18.442Z,4.67
2023-01-29T22:16:45.649Z,4.72
2023-01-29T22:19:13.561Z,4.78
2023-01-29T22:21:40.182Z,4.68
2023-01-29T22:24:07.400Z,4.73
2023-01-29T22:26:34.292Z,4.70
2023-01-29T22:29:00.938Z,4.61
2023-01-29T22:31:27.467Z,4.55
2023-01-29T22:33:54.138Z,4.54
2023-01-29T22:36:20.719Z,4.67
2023-01-29T22:38:47.232Z,4.61
2023-01-29T22:41:13.808Z,4.57
2023-01-29T22:43:41.066Z,4.44
2023-01-29T22:46:08.867Z,4.48
2023-01-29T22:48:35.899Z,4.40
2023-01-29T22:51:11.792Z,4.35
2023-01-29T22:53:44.010Z,4.48
2023-01-29T22:56:11.784Z,4.50
2023-01-29T22:58:38.371Z,4.43
2023-01-29T23:01:05.243Z,4.41
2023-01-29T23:03:31.818Z,4.34
2023-01-29T23:05:58.573Z,4.31
2023-01-29T23:08:25.309Z,4.32
2023-01-29T23:10:52.071Z,4.30
2023-01-29T23:13:18.831Z,4.13
2023-01-29T23:15:45.429Z,3.97
2023-01-29T23:18:12.218Z,4.10
2023-01-29T23:20:38.744Z,4.12
2023-01-29T23:23:05.416Z,4.18
2023-01-29T23:25:57.980Z,4.14
2023-01-29T23:28:24.498Z,4.10
2023-01-29T23:30:51.977Z,4.17
2023-01-29T23:33:18.965Z,4.25
2023-01-29T23:35:45.495Z,4.12
2023-01-29T23:38:12.097Z,4.20
2023-01-29T23:40:38.657Z,4.17
2023-01-29T23:43:05.170Z,4.14
2023-01-29T23:45:31.694Z,4.12
2023-01-29T23:47:58.241Z,4.19
2023-01-29T23:50:24.796Z,4.14
2023-01-29T23:52:51.311Z,4.13
2023-01-29T23:55:18.000Z,4.17
2023-01-29T23:57:44.544Z,4.13
